sensor_id;sensor_type;location;lat;lon;timestamp;pressure;altitude;pressure_sealevel;temperature;humidity
10948;BME280;5526;42.070;24.752;2022-12-24T00:01:00;98786.47;;;5.04;100.00
10948;BME280;5526;42.070;24.752;2022-12-24T00:03:28;98778.66;;;5.04;100.00
10948;BME280;5526;42.070;24.752;2022-12-24T00:05:56;98834.97;;;5.35;100.00
10948;BME280;5526;42.070;24.752;2022-12-24T00:08:24;98855.78;;;5.53;100.00
10948;BME280;5526;42.070;24.752;2022-12-24T00:10:52;98816.81;;;5.28;100.00
10948;BME280;5526;42.070;24.752;2022-12-24T00:13:20;98786.59;;;5.09;100.00
10948;BME280;5526;42.070;24.752;2022-12-24T00:15:49;98840.19;;;5.35;100.00
10948;BME280;5526;42.070;24.752;2022-12-24T00:18:18;98772.84;;;5.02;100.00
10948;BME280;5526;42.070;24.752;2022-12-24T00:20:46;98863.94;;;5.45;100.00
10948;BME280;5526;42.070;24.752;2022-12-24T00:23:15;98799.41;;;5.11;100.00
10948;BME280;5526;42.070;24.752;2022-12-24T00:25:43;98807.94;;;5.18;100.00
10948;BME280;5526;42.070;24.752;2022-12-24T00:28:12;98810.34;;;5.31;100.00
10948;BME280;5526;42.070;24.752;2022-12-24T00:30:41;98823.06;;;5.39;100.00
10948;BME280;5526;42.070;24.752;2022-12-24T00:33:09;98812.50;;;5.45;100.00
10948;BME280;5526;42.070;24.752;2022-12-24T00:35:39;98807.78;;;5.42;100.00
10948;BME280;5526;42.070;24.752;2022-12-24T00:38:07;98805.25;;;5.36;100.00
10948;BME280;5526;42.070;24.752;2022-12-24T00:40:35;98811.59;;;5.40;100.00
10948;BME280;5526;42.070;24.752;2022-12-24T00:43:03;98845.75;;;5.38;100.00
10948;BME280;5526;42.070;24.752;2022-12-24T00:45:31;98807.44;;;5.09;100.00
10948;BME280;5526;42.070;24.752;2022-12-24T00:47:58;98784.63;;;5.05;100.00
10948;BME280;5526;42.070;24.752;2022-12-24T00:50:26;98800.00;;;5.13;100.00
10948;BME280;5526;42.070;24.752;2022-12-24T00:52:55;98825.06;;;5.25;100.00
10948;BME280;5526;42.070;24.752;2022-12-24T00:55:23;98843.50;;;5.42;100.00
10948;BME280;5526;42.070;24.752;2022-12-24T00:57:51;98812.94;;;5.19;100.00
10948;BME280;5526;42.070;24.752;2022-12-24T01:00:19;98808.59;;;5.13;100.00
10948;BME280;5526;42.070;24.752;2022-12-24T01:02:47;98797.03;;;5.09;100.00
10948;BME280;5526;42.070;24.752;2022-12-24T01:05:15;98827.34;;;5.22;100.00
10948;BME280;5526;42.070;24.752;2022-12-24T01:07:46;98801.31;;;5.04;100.00
10948;BME280;5526;42.070;24.752;2022-12-24T01:10:17;98803.69;;;5.05;100.00
10948;BME280;5526;42.070;24.752;2022-12-24T01:12:46;98853.66;;;5.32;100.00
10948;BME280;5526;42.070;24.752;2022-12-24T01:15:14;98802.66;;;4.95;100.00
10948;BME280;5526;42.070;24.752;2022-12-24T01:17:42;98803.78;;;4.99;100.00
10948;BME280;5526;42.070;24.752;2022-12-24T01:20:13;98782.44;;;4.90;100.00
10948;BME280;5526;42.070;24.752;2022-12-24T01:22:42;98775.53;;;4.84;100.00
10948;BME280;5526;42.070;24.752;2022-12-24T01:25:10;98796.63;;;4.94;100.00
10948;BME280;5526;42.070;24.752;2022-12-24T01:27:40;98775.53;;;4.84;100.00
10948;BME280;5526;42.070;24.752;2022-12-24T01:30:10;98751.91;;;4.68;100.00
10948;BME280;5526;42.070;24.752;2022-12-24T01:32:40;98787.75;;;4.84;100.00
10948;BME280;5526;42.070;24.752;2022-12-24T01:35:08;98799.81;;;4.96;100.00
10948;BME280;5526;42.070;24.752;2022-12-24T01:37:37;98804.72;;;5.04;100.00
10948;BME280;5526;42.070;24.752;2022-12-24T01:40:06;98741.56;;;4.61;100.00
10948;BME280;5526;42.070;24.752;2022-12-24T01:42:53;98751.19;;;4.60;100.00
10948;BME280;5526;42.070;24.752;2022-12-24T01:45:47;98777.75;;;4.51;100.00
10948;BME280;5526;42.070;24.752;2022-12-24T01:48:34;98757.19;;;4.31;100.00
10948;BME280;5526;42.070;24.752;2022-12-24T01:51:06;98768.25;;;4.09;100.00
10948;BME280;5526;42.070;24.752;2022-12-24T01:53:37;98793.84;;;4.30;100.00
10948;BME280;5526;42.070;24.752;2022-12-24T01:56:06;98832.91;;;4.66;100.00
10948;BME280;5526;42.070;24.752;2022-12-24T01:58:37;98784.59;;;4.34;100.00
10948;BME280;5526;42.070;24.752;2022-12-24T02:01:08;98760.44;;;4.27;100.00
10948;BME280;5526;42.070;24.752;2022-12-24T02:03:36;98786.25;;;4.46;100.00
10948;BME280;5526;42.070;24.752;2022-12-24T02:06:04;98791.63;;;4.63;100.00
10948;BME280;5526;42.070;24.752;2022-12-24T02:08:34;98762.94;;;4.51;100.00
10948;BME280;5526;42.070;24.752;2022-12-24T02:11:13;98772.63;;;4.63;100.00
10948;BME280;5526;42.070;24.752;2022-12-24T02:13:45;98777.25;;;4.60;100.00
10948;BME280;5526;42.070;24.752;2022-12-24T02:16:25;98797.94;;;4.74;100.00
10948;BME280;5526;42.070;24.752;2022-12-24T02:19:00;98768.38;;;4.50;100.00
10948;BME280;5526;42.070;24.752;2022-12-24T02:21:38;98769.59;;;4.47;100.00
10948;BME280;5526;42.070;24.752;2022-12-24T02:24:32;98813.69;;;4.79;100.00
10948;BME280;5526;42.070;24.752;2022-12-24T02:27:15;98779.81;;;4.49;100.00
10948;BME280;5526;42.070;24.752;2022-12-24T02:30:19;98804.63;;;4.51;100.00
10948;BME280;5526;42.070;24.752;2022-12-24T02:35:46;98759.63;;;4.26;100.00
10948;BME280;5526;42.070;24.752;2022-12-24T02:38:18;98766.56;;;4.32;100.00
10948;BME280;5526;42.070;24.752;2022-12-24T02:40:51;98831.00;;;4.73;100.00
10948;BME280;5526;42.070;24.752;2022-12-24T02:43:22;98822.44;;;4.54;100.00
10948;BME280;5526;42.070;24.752;2022-12-24T02:45:55;98777.22;;;4.31;100.00
10948;BME280;5526;42.070;24.752;2022-12-24T02:48:25;98758.47;;;4.22;100.00
10948;BME280;5526;42.070;24.752;2022-12-24T02:51:00;98850.13;;;4.67;100.00
10948;BME280;5526;42.070;24.752;2022-12-24T02:53:29;98835.28;;;4.68;100.00
10948;BME280;5526;42.070;24.752;2022-12-24T02:56:15;98770.28;;;4.25;100.00
10948;BME280;5526;42.070;24.752;2022-12-24T02:58:58;98796.88;;;4.27;100.00
10948;BME280;5526;42.070;24.752;2022-12-24T03:01:42;98848.75;;;4.64;100.00
10948;BME280;5526;42.070;24.752;2022-12-24T03:04:20;98805.13;;;4.42;100.00
10948;BME280;5526;42.070;24.752;2022-12-24T03:07:09;98779.03;;;4.30;100.00
10948;BME280;5526;42.070;24.752;2022-12-24T03:09:52;98820.69;;;4.48;100.00
10948;BME280;5526;42.070;24.752;2022-12-24T03:12:27;98781.69;;;4.24;100.00
10948;BME280;5526;42.070;24.752;2022-12-24T03:14:57;98818.16;;;4.42;100.00
10948;BME280;5526;42.070;24.752;2022-12-24T03:17:28;98831.09;;;4.48;100.00
10948;BME280;5526;42.070;24.752;2022-12-24T03:19:57;98780.09;;;4.23;100.00
10948;BME280;5526;42.070;24.752;2022-12-24T03:22:25;98779.94;;;4.36;100.00
10948;BME280;5526;42.070;24.752;2022-12-24T03:24:54;98746.41;;;4.10;100.00
10948;BME280;5526;42.070;24.752;2022-12-24T03:27:24;98779.03;;;4.30;100.00
10948;BME280;5526;42.070;24.752;2022-12-24T03:29:52;98800.78;;;4.36;100.00
10948;BME280;5526;42.070;24.752;2022-12-24T03:32:23;98765.78;;;4.14;100.00
10948;BME280;5526;42.070;24.752;2022-12-24T03:34:54;98815.97;;;4.39;100.00
10948;BME280;5526;42.070;24.752;2022-12-24T03:37:22;98763.91;;;4.03;100.00
10948;BME280;5526;42.070;24.752;2022-12-24T03:39:50;98830.38;;;4.41;100.00
10948;BME280;5526;42.070;24.752;2022-12-24T03:42:18;98744.59;;;3.92;100.00
10948;BME280;5526;42.070;24.752;2022-12-24T03:44:46;98807.53;;;4.25;100.00
10948;BME280;5526;42.070;24.752;2022-12-24T03:47:14;98791.25;;;4.12;100.00
10948;BME280;5526;42.070;24.752;2022-12-24T03:49:42;98815.94;;;4.27;100.00
10948;BME280;5526;42.070;24.752;2022-12-24T03:52:11;98807.94;;;4.22;100.00
10948;BME280;5526;42.070;24.752;2022-12-24T03:54:39;98782.06;;;4.09;100.00
10948;BME280;5526;42.070;24.752;2022-12-24T03:57:07;98777.34;;;4.00;100.00
10948;BME280;5526;42.070;24.752;2022-12-24T03:59:35;98767.53;;;4.02;100.00
10948;BME280;5526;42.070;24.752;2022-12-24T04:02:02;98785.75;;;4.20;100.00
10948;BME280;5526;42.070;24.752;2022-12-24T04:04:30;98752.41;;;3.92;100.00
10948;BME280;5526;42.070;24.752;2022-12-24T04:07:01;98745.84;;;3.90;100.00
10948;BME280;5526;42.070;24.752;2022-12-24T04:09:31;98744.47;;;3.87;100.00
10948;BME280;5526;42.070;24.752;2022-12-24T04:11:59;98740.63;;;3.72;100.00
10948;BME280;5526;42.070;24.752;2022-12-24T04:14:27;98788.44;;;4.13;100.00
10948;BME280;5526;42.070;24.752;2022-12-24T04:16:55;98756.59;;;3.93;100.00
10948;BME280;5526;42.070;24.752;2022-12-24T04:19:23;98743.66;;;3.87;100.00
10948;BME280;5526;42.070;24.752;2022-12-24T04:21:51;98778.16;;;4.00;100.00
10948;BME280;5526;42.070;24.752;2022-12-24T04:24:18;98804.56;;;4.22;100.00
10948;BME280;5526;42.070;24.752;2022-12-24T04:26:48;98820.31;;;4.27;100.00
10948;BME280;5526;42.070;24.752;2022-12-24T04:29:16;98789.31;;;4.07;100.00
10948;BME280;5526;42.070;24.752;2022-12-24T04:31:44;98822.78;;;4.22;100.00
10948;BME280;5526;42.070;24.752;2022-12-24T04:34:11;98806.72;;;4.07;100.00
10948;BME280;5526;42.070;24.752;2022-12-24T04:36:39;98836.38;;;4.24;100.00
10948;BME280;5526;42.070;24.752;2022-12-24T04:39:07;98799.75;;;4.01;100.00
10948;BME280;5526;42.070;24.752;2022-12-24T04:41:35;98791.59;;;3.97;100.00
10948;BME280;5526;42.070;24.752;2022-12-24T04:44:05;98770.94;;;3.84;100.00
10948;BME280;5526;42.070;24.752;2022-12-24T04:46:33;98786.34;;;3.86;100.00
10948;BME280;5526;42.070;24.752;2022-12-24T04:49:01;98781.25;;;3.91;100.00
10948;BME280;5526;42.070;24.752;2022-12-24T04:51:30;98804.75;;;4.02;100.00
10948;BME280;5526;42.070;24.752;2022-12-24T04:53:58;98824.16;;;4.06;100.00
10948;BME280;5526;42.070;24.752;2022-12-24T04:56:28;98812.34;;;4.04;100.00
10948;BME280;5526;42.070;24.752;2022-12-24T04:58:57;98792.25;;;3.93;100.00
10948;BME280;5526;42.070;24.752;2022-12-24T05:01:28;98772.16;;;3.82;100.00
10948;BME280;5526;42.070;24.752;2022-12-24T05:03:57;98817.94;;;4.07;100.00
10948;BME280;5526;42.070;24.752;2022-12-24T05:06:28;98771.00;;;3.78;100.00
10948;BME280;5526;42.070;24.752;2022-12-24T05:08:56;98815.09;;;3.91;100.00
10948;BME280;5526;42.070;24.752;2022-12-24T05:11:25;98809.31;;;3.89;100.00
10948;BME280;5526;42.070;24.752;2022-12-24T05:13:53;98750.28;;;3.65;100.00
10948;BME280;5526;42.070;24.752;2022-12-24T05:16:21;98771.00;;;3.78;100.00
10948;BME280;5526;42.070;24.752;2022-12-24T05:18:51;98761.97;;;3.80;100.00
10948;BME280;5526;42.070;24.752;2022-12-24T05:21:21;98762.16;;;3.79;100.00
10948;BME280;5526;42.070;24.752;2022-12-24T05:23:51;98759.78;;;3.77;100.00
10948;BME280;5526;42.070;24.752;2022-12-24T05:26:39;98765.41;;;3.74;100.00
10948;BME280;5526;42.070;24.752;2022-12-24T05:29:09;98815.25;;;3.96;100.00
10948;BME280;5526;42.070;24.752;2022-12-24T05:31:38;98782.59;;;3.75;100.00
10948;BME280;5526;42.070;24.752;2022-12-24T05:34:09;98839.97;;;4.05;100.00
10948;BME280;5526;42.070;24.752;2022-12-24T05:36:37;98773.34;;;3.61;100.00
10948;BME280;5526;42.070;24.752;2022-12-24T05:39:04;98800.19;;;3.80;100.00
10948;BME280;5526;42.070;24.752;2022-12-24T05:41:32;98819.16;;;3.87;100.00
10948;BME280;5526;42.070;24.752;2022-12-24T05:44:00;98797.03;;;3.78;100.00
10948;BME280;5526;42.070;24.752;2022-12-24T05:46:28;98823.66;;;3.98;100.00
10948;BME280;5526;42.070;24.752;2022-12-24T05:48:56;98787.44;;;3.72;100.00
10948;BME280;5526;42.070;24.752;2022-12-24T05:51:26;98842.94;;;3.90;100.00
10948;BME280;5526;42.070;24.752;2022-12-24T05:53:54;98794.44;;;3.71;100.00
10948;BME280;5526;42.070;24.752;2022-12-24T05:56:23;98795.25;;;3.72;100.00
10948;BME280;5526;42.070;24.752;2022-12-24T05:58:53;98787.38;;;3.78;100.00
10948;BME280;5526;42.070;24.752;2022-12-24T06:01:21;98788.53;;;3.82;100.00
10948;BME280;5526;42.070;24.752;2022-12-24T06:03:49;98846.31;;;4.15;100.00
10948;BME280;5526;42.070;24.752;2022-12-24T06:06:19;98805.44;;;3.98;100.00
10948;BME280;5526;42.070;24.752;2022-12-24T06:08:50;98791.19;;;4.00;100.00
10948;BME280;5526;42.070;24.752;2022-12-24T06:11:20;98811.09;;;4.13;100.00
10948;BME280;5526;42.070;24.752;2022-12-24T06:13:49;98831.38;;;4.22;100.00
10948;BME280;5526;42.070;24.752;2022-12-24T06:16:19;98815.53;;;4.24;100.00
10948;BME280;5526;42.070;24.752;2022-12-24T06:18:47;98797.47;;;4.11;100.00
10948;BME280;5526;42.070;24.752;2022-12-24T06:21:16;98812.59;;;4.20;100.00
10948;BME280;5526;42.070;24.752;2022-12-24T06:23:45;98836.75;;;4.27;100.00
10948;BME280;5526;42.070;24.752;2022-12-24T06:26:16;98870.28;;;4.60;100.00
10948;BME280;5526;42.070;24.752;2022-12-24T06:28:45;98837.97;;;4.43;100.00
10948;BME280;5526;42.070;24.752;2022-12-24T06:31:15;98810.00;;;4.38;100.00
10948;BME280;5526;42.070;24.752;2022-12-24T06:33:44;98853.66;;;4.72;100.00
10948;BME280;5526;42.070;24.752;2022-12-24T06:36:15;98874.63;;;4.96;100.00
10948;BME280;5526;42.070;24.752;2022-12-24T06:38:43;98846.53;;;4.98;100.00
10948;BME280;5526;42.070;24.752;2022-12-24T06:41:11;98834.28;;;4.98;100.00
10948;BME280;5526;42.070;24.752;2022-12-24T06:43:44;98809.72;;;5.06;100.00
10948;BME280;5526;42.070;24.752;2022-12-24T06:46:12;98842.09;;;5.28;100.00
10948;BME280;5526;42.070;24.752;2022-12-24T06:48:41;98840.31;;;5.40;100.00
10948;BME280;5526;42.070;24.752;2022-12-24T06:51:10;98821.47;;;5.38;100.00
10948;BME280;5526;42.070;24.752;2022-12-24T06:53:38;98794.81;;;5.36;100.00
10948;BME280;5526;42.070;24.752;2022-12-24T06:56:07;98832.97;;;5.71;100.00
10948;BME280;5526;42.070;24.752;2022-12-24T06:58:36;98870.94;;;6.08;100.00
10948;BME280;5526;42.070;24.752;2022-12-24T07:01:07;98841.56;;;6.01;100.00
10948;BME280;5526;42.070;24.752;2022-12-24T07:03:36;98827.13;;;6.10;100.00
10948;BME280;5526;42.070;24.752;2022-12-24T07:06:04;98835.59;;;6.29;100.00
10948;BME280;5526;42.070;24.752;2022-12-24T07:08:33;98826.16;;;6.39;100.00
10948;BME280;5526;42.070;24.752;2022-12-24T07:11:01;98797.31;;;6.46;100.00
10948;BME280;5526;42.070;24.752;2022-12-24T07:13:29;98793.06;;;6.56;100.00
10948;BME280;5526;42.070;24.752;2022-12-24T07:15:59;98820.47;;;6.82;100.00
10948;BME280;5526;42.070;24.752;2022-12-24T07:18:30;98871.16;;;7.20;100.00
10948;BME280;5526;42.070;24.752;2022-12-24T07:20:58;98827.66;;;7.03;100.00
10948;BME280;5526;42.070;24.752;2022-12-24T07:23:26;98849.09;;;7.16;100.00
10948;BME280;5526;42.070;24.752;2022-12-24T07:25:54;98861.72;;;7.19;100.00
10948;BME280;5526;42.070;24.752;2022-12-24T07:28:22;98872.00;;;7.09;100.00
10948;BME280;5526;42.070;24.752;2022-12-24T07:30:49;98828.97;;;6.49;100.00
10948;BME280;5526;42.070;24.752;2022-12-24T07:33:17;98829.88;;;6.43;100.00
10948;BME280;5526;42.070;24.752;2022-12-24T07:35:47;98866.44;;;6.78;100.00
10948;BME280;5526;42.070;24.752;2022-12-24T07:38:15;98814.91;;;6.78;100.00
10948;BME280;5526;42.070;24.752;2022-12-24T07:40:43;98829.00;;;7.05;99.31
10948;BME280;5526;42.070;24.752;2022-12-24T07:43:11;98833.00;;;7.24;98.02
10948;BME280;5526;42.070;24.752;2022-12-24T07:45:39;98877.09;;;7.77;97.52
10948;BME280;5526;42.070;24.752;2022-12-24T07:48:08;98841.53;;;7.81;95.36
10948;BME280;5526;42.070;24.752;2022-12-24T07:50:35;98853.34;;;8.16;92.71
10948;BME280;5526;42.070;24.752;2022-12-24T07:53:05;98848.00;;;8.11;91.27
10948;BME280;5526;42.070;24.752;2022-12-24T07:55:35;98856.75;;;8.33;90.55
10948;BME280;5526;42.070;24.752;2022-12-24T07:58:03;98859.69;;;8.20;89.97
10948;BME280;5526;42.070;24.752;2022-12-24T08:00:30;98881.28;;;8.27;90.35
10948;BME280;5526;42.070;24.752;2022-12-24T08:02:58;98904.63;;;8.45;90.65
10948;BME280;5526;42.070;24.752;2022-12-24T08:05:26;98841.31;;;7.99;90.10
10948;BME280;5526;42.070;24.752;2022-12-24T08:07:54;98890.66;;;8.23;89.89
10948;BME280;5526;42.070;24.752;2022-12-24T08:10:24;98926.34;;;8.62;88.91
10948;BME280;5526;42.070;24.752;2022-12-24T08:12:52;98882.41;;;8.31;88.00
10948;BME280;5526;42.070;24.752;2022-12-24T08:15:19;98883.13;;;8.43;88.10
10948;BME280;5526;42.070;24.752;2022-12-24T08:17:47;98910.88;;;8.61;87.20
10948;BME280;5526;42.070;24.752;2022-12-24T08:20:15;98930.16;;;8.33;87.27
10948;BME280;5526;42.070;24.752;2022-12-24T08:22:43;98956.50;;;8.10;86.64
10948;BME280;5526;42.070;24.752;2022-12-24T08:25:11;98928.56;;;7.83;87.73
10948;BME280;5526;42.070;24.752;2022-12-24T08:27:41;98921.16;;;7.80;89.19
10948;BME280;5526;42.070;24.752;2022-12-24T08:30:10;98913.53;;;7.78;88.67
10948;BME280;5526;42.070;24.752;2022-12-24T08:32:38;98916.19;;;7.95;89.23
10948;BME280;5526;42.070;24.752;2022-12-24T08:35:07;98883.63;;;7.91;88.68
10948;BME280;5526;42.070;24.752;2022-12-24T08:37:35;98907.34;;;8.17;88.80
10948;BME280;5526;42.070;24.752;2022-12-24T08:40:03;98908.63;;;8.31;88.70
10948;BME280;5526;42.070;24.752;2022-12-24T08:42:32;98924.72;;;8.56;87.79
10948;BME280;5526;42.070;24.752;2022-12-24T08:45:01;98885.81;;;8.48;87.25
10948;BME280;5526;42.070;24.752;2022-12-24T08:47:29;98912.88;;;8.54;87.85
10948;BME280;5526;42.070;24.752;2022-12-24T08:49:57;98879.50;;;8.49;87.96
10948;BME280;5526;42.070;24.752;2022-12-24T08:52:25;98851.47;;;8.50;88.13
10948;BME280;5526;42.070;24.752;2022-12-24T08:54:53;98856.16;;;8.69;86.75
10948;BME280;5526;42.070;24.752;2022-12-24T08:57:21;98867.44;;;8.92;87.09
10948;BME280;5526;42.070;24.752;2022-12-24T08:59:49;98868.19;;;9.14;85.94
10948;BME280;5526;42.070;24.752;2022-12-24T09:02:19;98847.03;;;9.20;86.25
10948;BME280;5526;42.070;24.752;2022-12-24T09:04:47;98868.59;;;9.54;86.26
10948;BME280;5526;42.070;24.752;2022-12-24T09:07:15;98849.06;;;9.45;86.09
10948;BME280;5526;42.070;24.752;2022-12-24T09:09:43;98875.03;;;9.68;86.30
10948;BME280;5526;42.070;24.752;2022-12-24T09:12:11;98876.91;;;9.72;85.67
10948;BME280;5526;42.070;24.752;2022-12-24T09:14:38;98827.31;;;9.49;85.09
10948;BME280;5526;42.070;24.752;2022-12-24T09:17:06;98843.13;;;9.54;85.03
10948;BME280;5526;42.070;24.752;2022-12-24T09:19:36;98888.59;;;9.86;84.82
10948;BME280;5526;42.070;24.752;2022-12-24T09:22:04;98839.66;;;9.49;84.91
10948;BME280;5526;42.070;24.752;2022-12-24T09:24:32;98839.47;;;9.29;86.16
10948;BME280;5526;42.070;24.752;2022-12-24T09:27:01;98878.72;;;9.72;85.72
10948;BME280;5526;42.070;24.752;2022-12-24T09:29:29;98897.69;;;10.05;84.53
10948;BME280;5526;42.070;24.752;2022-12-24T09:31:57;98863.66;;;10.25;83.55
10948;BME280;5526;42.070;24.752;2022-12-24T09:34:25;98843.84;;;10.13;83.00
10948;BME280;5526;42.070;24.752;2022-12-24T09:36:54;98853.69;;;10.32;82.43
10948;BME280;5526;42.070;24.752;2022-12-24T09:39:22;98846.09;;;10.36;81.39
10948;BME280;5526;42.070;24.752;2022-12-24T09:41:57;98828.84;;;10.55;80.04
10948;BME280;5526;42.070;24.752;2022-12-24T09:44:34;98837.00;;;10.63;78.92
10948;BME280;5526;42.070;24.752;2022-12-24T09:47:11;98854.16;;;10.76;79.31
10948;BME280;5526;42.070;24.752;2022-12-24T09:49:44;98792.16;;;10.33;79.09
10948;BME280;5526;42.070;24.752;2022-12-24T09:52:24;98866.03;;;10.78;78.45
10948;BME280;5526;42.070;24.752;2022-12-24T09:54:59;98826.47;;;10.53;78.69
10948;BME280;5526;42.070;24.752;2022-12-24T09:57:33;98858.94;;;10.89;78.82
10948;BME280;5526;42.070;24.752;2022-12-24T10:00:03;98811.19;;;10.60;78.94
10948;BME280;5526;42.070;24.752;2022-12-24T10:02:32;98817.28;;;10.66;79.05
10948;BME280;5526;42.070;24.752;2022-12-24T10:05:00;98841.56;;;10.83;78.63
10948;BME280;5526;42.070;24.752;2022-12-24T10:07:41;98860.06;;;11.03;76.86
10948;BME280;5526;42.070;24.752;2022-12-24T10:10:21;98798.84;;;10.56;76.78
10948;BME280;5526;42.070;24.752;2022-12-24T10:12:58;98849.53;;;10.98;78.47
10948;BME280;5526;42.070;24.752;2022-12-24T10:15:35;98826.84;;;10.87;77.83
10948;BME280;5526;42.070;24.752;2022-12-24T10:18:16;98835.84;;;11.16;77.33
10948;BME280;5526;42.070;24.752;2022-12-24T10:20:51;98825.34;;;11.31;77.76
10948;BME280;5526;42.070;24.752;2022-12-24T10:23:27;98763.69;;;11.02;77.99
10948;BME280;5526;42.070;24.752;2022-12-24T10:26:06;98824.28;;;11.52;76.20
10948;BME280;5526;42.070;24.752;2022-12-24T10:28:41;98757.13;;;11.24;76.93
10948;BME280;5526;42.070;24.752;2022-12-24T10:31:13;98777.41;;;11.39;76.70
10948;BME280;5526;42.070;24.752;2022-12-24T10:33:42;98772.38;;;11.22;76.61
10948;BME280;5526;42.070;24.752;2022-12-24T10:36:14;98765.28;;;11.18;76.67
10948;BME280;5526;42.070;24.752;2022-12-24T10:38:45;98813.00;;;11.61;76.99
10948;BME280;5526;42.070;24.752;2022-12-24T10:41:14;98801.91;;;11.54;76.18
10948;BME280;5526;42.070;24.752;2022-12-24T10:43:44;98812.22;;;11.61;76.21
10948;BME280;5526;42.070;24.752;2022-12-24T10:46:17;98760.53;;;11.15;76.27
10948;BME280;5526;42.070;24.752;2022-12-24T10:48:51;98827.25;;;11.75;75.85
10948;BME280;5526;42.070;24.752;2022-12-24T10:51:23;98811.16;;;11.77;75.26
10948;BME280;5526;42.070;24.752;2022-12-24T10:53:59;98783.75;;;11.63;75.11
10948;BME280;5526;42.070;24.752;2022-12-24T10:56:28;98827.75;;;11.87;75.61
10948;BME280;5526;42.070;24.752;2022-12-24T10:58:56;98810.09;;;11.88;74.98
10948;BME280;5526;42.070;24.752;2022-12-24T11:01:42;98788.72;;;11.89;73.17
10948;BME280;5526;42.070;24.752;2022-12-24T11:04:15;98770.81;;;11.86;74.19
10948;BME280;5526;42.070;24.752;2022-12-24T11:06:52;98804.53;;;12.09;73.05
10948;BME280;5526;42.070;24.752;2022-12-24T11:09:22;98763.38;;;11.93;73.83
10948;BME280;5526;42.070;24.752;2022-12-24T11:11:51;98833.44;;;12.39;73.38
10948;BME280;5526;42.070;24.752;2022-12-24T11:14:20;98796.06;;;12.17;73.39
10948;BME280;5526;42.070;24.752;2022-12-24T11:16:55;98779.13;;;12.23;72.93
10948;BME280;5526;42.070;24.752;2022-12-24T11:19:29;98813.63;;;12.42;72.78
10948;BME280;5526;42.070;24.752;2022-12-24T11:22:01;98812.56;;;12.48;72.72
10948;BME280;5526;42.070;24.752;2022-12-24T11:24:32;98774.63;;;12.29;72.83
10948;BME280;5526;42.070;24.752;2022-12-24T11:27:26;98803.28;;;12.55;72.40
10948;BME280;5526;42.070;24.752;2022-12-24T11:30:19;98750.09;;;12.28;72.18
10948;BME280;5526;42.070;24.752;2022-12-24T11:32:48;98753.06;;;12.17;73.44
10948;BME280;5526;42.070;24.752;2022-12-24T11:35:19;98761.97;;;12.26;72.97
10948;BME280;5526;42.070;24.752;2022-12-24T11:37:48;98759.59;;;12.24;73.16
10948;BME280;5526;42.070;24.752;2022-12-24T11:40:23;98794.03;;;12.63;71.97
10948;BME280;5526;42.070;24.752;2022-12-24T11:42:58;98787.50;;;12.50;71.91
10948;BME280;5526;42.070;24.752;2022-12-24T11:45:28;98804.16;;;12.41;72.96
10948;BME280;5526;42.070;24.752;2022-12-24T11:47:56;98777.31;;;12.14;73.11
10948;BME280;5526;42.070;24.752;2022-12-24T11:50:27;98804.13;;;13.43;68.40
10948;BME280;5526;42.070;24.752;2022-12-24T11:53:02;98760.72;;;12.72;69.48
10948;BME280;5526;42.070;24.752;2022-12-24T11:55:40;98740.56;;;12.37;70.90
10948;BME280;5526;42.070;24.752;2022-12-24T11:58:19;98792.66;;;12.70;71.21
10948;BME280;5526;42.070;24.752;2022-12-24T12:00:51;98810.09;;;12.76;71.55
10948;BME280;5526;42.070;24.752;2022-12-24T12:03:29;98806.94;;;12.69;70.64
10948;BME280;5526;42.070;24.752;2022-12-24T12:06:00;98740.03;;;12.35;71.53
10948;BME280;5526;42.070;24.752;2022-12-24T12:08:31;98775.28;;;12.64;71.54
10948;BME280;5526;42.070;24.752;2022-12-24T12:11:04;98758.41;;;12.60;70.64
10948;BME280;5526;42.070;24.752;2022-12-24T12:13:37;98745.00;;;12.52;71.18
10948;BME280;5526;42.070;24.752;2022-12-24T12:16:16;98778.59;;;12.85;70.79
10948;BME280;5526;42.070;24.752;2022-12-24T12:18:48;98731.97;;;12.65;70.73
10948;BME280;5526;42.070;24.752;2022-12-24T12:21:22;98803.88;;;12.96;70.70
10948;BME280;5526;42.070;24.752;2022-12-24T12:23:56;98778.13;;;12.73;70.59
10948;BME280;5526;42.070;24.752;2022-12-24T12:26:28;98738.69;;;12.48;70.83
10948;BME280;5526;42.070;24.752;2022-12-24T12:29:00;98757.03;;;12.68;70.57
10948;BME280;5526;42.070;24.752;2022-12-24T12:31:32;98741.25;;;12.63;70.68
10948;BME280;5526;42.070;24.752;2022-12-24T12:34:04;98754.28;;;12.44;70.92
10948;BME280;5526;42.070;24.752;2022-12-24T12:36:41;98779.78;;;12.64;70.64
10948;BME280;5526;42.070;24.752;2022-12-24T12:39:10;98747.44;;;12.38;71.42
10948;BME280;5526;42.070;24.752;2022-12-24T12:41:55;98733.97;;;12.40;70.31
10948;BME280;5526;42.070;24.752;2022-12-24T12:44:43;98724.75;;;12.32;69.87
10948;BME280;5526;42.070;24.752;2022-12-24T12:47:27;98755.03;;;12.45;69.84
10948;BME280;5526;42.070;24.752;2022-12-24T12:50:04;98749.25;;;12.38;70.22
10948;BME280;5526;42.070;24.752;2022-12-24T12:52:43;98758.22;;;12.47;69.66
10948;BME280;5526;42.070;24.752;2022-12-24T12:55:26;98762.44;;;12.48;69.92
10948;BME280;5526;42.070;24.752;2022-12-24T12:58:03;98758.66;;;12.64;69.79
10948;BME280;5526;42.070;24.752;2022-12-24T13:00:38;98780.78;;;12.73;69.62
10948;BME280;5526;42.070;24.752;2022-12-24T13:03:42;98754.47;;;12.53;69.20
10948;BME280;5526;42.070;24.752;2022-12-24T13:06:27;98717.69;;;12.18;70.31
10948;BME280;5526;42.070;24.752;2022-12-24T13:09:29;98745.31;;;12.35;71.00
10948;BME280;5526;42.070;24.752;2022-12-24T13:12:23;98775.56;;;12.58;70.90
10948;BME280;5526;42.070;24.752;2022-12-24T13:15:19;98751.44;;;12.31;70.63
10948;BME280;5526;42.070;24.752;2022-12-24T13:21:00;98772.00;;;12.29;72.00
10948;BME280;5526;42.070;24.752;2022-12-24T13:23:29;98780.44;;;12.36;71.58
10948;BME280;5526;42.070;24.752;2022-12-24T13:25:58;98761.19;;;12.30;71.56
10948;BME280;5526;42.070;24.752;2022-12-24T13:28:35;98784.06;;;12.45;69.92
10948;BME280;5526;42.070;24.752;2022-12-24T13:31:25;98760.66;;;12.23;70.56